createdAt,value
2019-02-26T00:01:50.493Z,11.60
2019-02-26T00:04:21.076Z,14.33
2019-02-26T00:06:51.821Z,10.83
2019-02-26T00:09:24.953Z,12.60
2019-02-26T00:11:54.758Z,12.80
2019-02-26T00:14:27.030Z,12.83
2019-02-26T00:16:56.541Z,12.93
2019-02-26T00:19:26.843Z,13.13
2019-02-26T00:21:57.017Z,12.80
2019-02-26T00:24:46.541Z,12.37
2019-02-26T00:27:16.742Z,12.00
2019-02-26T00:29:48.674Z,15.27
2019-02-26T00:32:18.599Z,12.73
2019-02-26T00:34:48.623Z,13.27
2019-02-26T00:37:20.069Z,12.83
2019-02-26T00:39:51.847Z,13.30
2019-02-26T00:42:24.268Z,16.90
2019-02-26T00:44:55.935Z,17.60
2019-02-26T00:47:25.555Z,15.00
2019-02-26T00:49:55.597Z,15.03
2019-02-26T00:52:25.577Z,15.30
2019-02-26T00:54:57.596Z,17.40
2019-02-26T00:57:29.193Z,14.73
2019-02-26T01:00:00.726Z,15.67
2019-02-26T01:02:30.757Z,16.50
2019-02-26T01:05:00.803Z,17.23
2019-02-26T01:07:30.895Z,15.83
2019-02-26T01:10:02.399Z,15.27
2019-02-26T01:12:33.080Z,16.63
2019-02-26T01:15:06.752Z,14.77
2019-02-26T01:17:38.363Z,19.40
2019-02-26T01:20:10.863Z,15.03
2019-02-26T01:22:42.835Z,15.67
2019-02-26T01:25:15.222Z,16.43
2019-02-26T01:27:47.802Z,15.23
2019-02-26T01:30:20.677Z,17.47
2019-02-26T01:32:48.523Z,17.57
2019-02-26T01:35:18.645Z,18.03
2019-02-26T01:37:49.347Z,16.47
2019-02-26T01:40:21.778Z,19.93
2019-02-26T01:42:55.155Z,21.63
2019-02-26T01:45:27.323Z,20.20
2019-02-26T01:47:56.184Z,15.70
2019-02-26T01:50:27.990Z,17.20
2019-02-26T01:52:59.156Z,17.07
2019-02-26T01:55:29.707Z,17.10
2019-02-26T01:57:59.763Z,18.50
2019-02-26T02:00:29.938Z,18.57
2019-02-26T02:03:00.019Z,17.17
2019-02-26T02:05:31.383Z,13.20
2019-02-26T02:08:01.907Z,11.13
2019-02-26T02:10:31.897Z,13.20
2019-02-26T02:13:02.847Z,15.50
2019-02-26T02:15:35.571Z,14.23
2019-02-26T02:18:06.201Z,16.97
2019-02-26T02:20:36.225Z,17.00
2019-02-26T02:23:07.090Z,13.10
2019-02-26T02:25:38.748Z,15.00
2019-02-26T02:28:08.929Z,11.57
2019-02-26T02:30:39.210Z,14.47
2019-02-26T02:33:09.260Z,13.37
2019-02-26T02:35:39.265Z,16.23
2019-02-26T02:38:09.328Z,13.77
2019-02-26T02:40:40.208Z,13.97
2019-02-26T02:43:13.204Z,15.10
2019-02-26T02:45:42.769Z,13.60
2019-02-26T02:48:14.183Z,12.10
2019-02-26T02:50:44.356Z,12.57
2019-02-26T02:53:14.465Z,13.70
2019-02-26T02:55:47.026Z,19.80
2019-02-26T02:58:18.332Z,16.63
2019-02-26T03:00:49.337Z,12.27
2019-02-26T03:03:21.433Z,17.67
2019-02-26T03:05:51.435Z,14.70
2019-02-26T03:08:22.362Z,11.27
2019-02-26T03:10:52.694Z,13.30
2019-02-26T03:13:24.889Z,13.13
2019-02-26T03:15:56.689Z,14.50
2019-02-26T03:18:26.164Z,13.37
2019-02-26T03:20:56.715Z,16.23
2019-02-26T03:23:27.892Z,12.57
2019-02-26T03:25:57.897Z,12.80
2019-02-26T03:28:27.995Z,18.70
2019-02-26T03:30:58.017Z,15.03
2019-02-26T03:33:28.082Z,22.73
2019-02-26T03:35:58.073Z,21.33
2019-02-26T03:38:28.884Z,17.00
2019-02-26T03:41:01.156Z,15.77
2019-02-26T03:43:31.434Z,17.07
2019-02-26T03:46:02.569Z,23.20
2019-02-26T03:48:32.572Z,16.03
2019-02-26T03:51:02.612Z,12.20
2019-02-26T03:53:34.286Z,13.80
2019-02-26T03:56:08.153Z,14.20
2019-02-26T03:58:36.274Z,11.33
2019-02-26T04:01:08.396Z,13.90
2019-02-26T04:03:39.518Z,13.93
2019-02-26T04:06:12.211Z,14.60
2019-02-26T04:08:42.767Z,14.00
2019-02-26T04:11:16.552Z,15.13
2019-02-26T04:13:45.881Z,18.17
2019-02-26T04:16:16.813Z,14.77
2019-02-26T04:18:51.033Z,14.37
2019-02-26T04:21:20.923Z,17.70
2019-02-26T04:23:51.406Z,16.53
2019-02-26T04:27:06.926Z,13.90
2019-02-26T04:29:55.776Z,13.03
2019-02-26T04:33:20.757Z,12.47
2019-02-26T04:36:23.811Z,14.10
2019-02-26T04:39:10.850Z,11.03
2019-02-26T04:41:53.958Z,13.17
2019-02-26T04:45:16.025Z,12.53
2019-02-26T04:47:48.656Z,15.60
2019-02-26T04:50:17.800Z,15.27
2019-02-26T04:52:47.881Z,15.90
2019-02-26T04:55:17.870Z,15.50
2019-02-26T04:57:50.602Z,15.03
2019-02-26T05:00:19.709Z,13.17
2019-02-26T05:02:49.810Z,13.87
2019-02-26T05:05:22.432Z,15.03
2019-02-26T05:07:51.723Z,12.70
2019-02-26T05:10:24.283Z,12.93
2019-02-26T05:12:57.134Z,15.20
2019-02-26T05:15:26.242Z,13.97
2019-02-26T05:17:56.887Z,14.67
2019-02-26T05:20:26.864Z,15.83
2019-02-26T05:23:00.046Z,12.97
2019-02-26T05:25:28.657Z,16.10
2019-02-26T05:27:58.789Z,15.40
2019-02-26T05:30:28.881Z,14.07
2019-02-26T05:33:00.818Z,17.43
2019-02-26T05:35:33.508Z,16.03
2019-02-26T05:38:06.825Z,16.87
2019-02-26T05:40:37.432Z,13.73
2019-02-26T05:43:07.107Z,14.03
2019-02-26T05:45:37.189Z,16.27
2019-02-26T05:48:07.250Z,16.00
2019-02-26T05:50:38.666Z,13.77
2019-02-26T05:53:11.267Z,14.80
2019-02-26T05:55:42.239Z,13.53
2019-02-26T05:58:15.651Z,11.93
2019-02-26T06:00:44.689Z,14.70
2019-02-26T06:03:16.280Z,13.70
2019-02-26T06:05:48.966Z,14.27
2019-02-26T06:08:18.225Z,15.17
2019-02-26T06:10:48.760Z,15.33
2019-02-26T06:13:18.834Z,15.63
2019-02-26T06:15:51.431Z,16.37
2019-02-26T06:18:21.034Z,14.90
2019-02-26T06:20:53.431Z,15.63
2019-02-26T06:23:23.195Z,14.77
2019-02-26T06:25:55.995Z,15.13
2019-02-26T06:28:26.361Z,14.93
2019-02-26T06:31:00.913Z,25.20
2019-02-26T06:33:34.118Z,15.63
2019-02-26T06:36:04.698Z,20.63
2019-02-26T06:38:35.049Z,17.13
2019-02-26T06:41:05.273Z,15.40
2019-02-26T06:43:37.551Z,31.40
2019-02-26T06:46:09.338Z,21.37
2019-02-26T06:48:38.830Z,18.60
2019-02-26T06:51:08.871Z,17.20
2019-02-26T06:53:38.908Z,16.33
2019-02-26T06:56:09.036Z,18.70
2019-02-26T06:58:41.123Z,24.53
2019-02-26T07:01:12.018Z,34.08
2019-02-26T07:03:42.485Z,28.57
2019-02-26T07:06:12.648Z,20.73
2019-02-26T07:08:44.496Z,17.67
2019-02-26T07:11:14.517Z,20.27
2019-02-26T07:13:46.411Z,19.23
2019-02-26T07:16:18.081Z,21.83
2019-02-26T07:18:47.973Z,19.63
2019-02-26T07:21:17.997Z,18.13
2019-02-26T07:23:48.011Z,16.50
2019-02-26T07:26:18.902Z,17.27
2019-02-26T07:28:51.070Z,23.03
2019-02-26T07:31:21.327Z,17.77
2019-02-26T07:33:53.212Z,17.40
2019-02-26T07:36:23.690Z,18.63
2019-02-26T07:38:56.534Z,20.80
2019-02-26T07:41:29.832Z,23.90
2019-02-26T07:43:59.971Z,23.57
2019-02-26T07:46:30.160Z,19.93
2019-02-26T07:49:02.633Z,21.63
2019-02-26T07:51:33.840Z,23.10
2019-02-26T07:54:03.737Z,25.37
2019-02-26T07:56:33.786Z,25.83
2019-02-26T07:59:06.741Z,24.10
2019-02-26T08:01:37.491Z,24.47
2019-02-26T08:04:09.351Z,21.20
2019-02-26T08:06:39.042Z,24.57
2019-02-26T08:09:12.158Z,27.90
2019-02-26T08:11:43.826Z,20.70
2019-02-26T08:14:15.779Z,23.13
2019-02-26T08:16:49.224Z,20.20
2019-02-26T08:19:17.143Z,25.13
2019-02-26T08:21:47.913Z,27.23
2019-02-26T08:24:20.334Z,21.80
2019-02-26T08:26:50.621Z,26.00
2019-02-26T08:29:20.630Z,30.27
2019-02-26T08:31:52.124Z,24.73
2019-02-26T08:34:22.410Z,27.57
2019-02-26T08:36:52.509Z,28.03
2019-02-26T08:39:22.517Z,29.50
2019-02-26T08:42:09.650Z,26.10
2019-02-26T08:44:39.664Z,26.13
2019-02-26T08:47:13.472Z,34.50
2019-02-26T08:49:43.450Z,24.73
2019-02-26T08:52:16.829Z,26.37
2019-02-26T08:54:45.009Z,28.53
2019-02-26T08:57:15.049Z,31.03
2019-02-26T08:59:47.162Z,36.97
2019-02-26T09:02:17.201Z,29.60
2019-02-26T09:04:47.799Z,30.93
2019-02-26T09:07:19.567Z,32.83
2019-02-26T09:09:50.690Z,31.00
2019-02-26T09:12:27.109Z,31.80
2019-02-26T09:14:56.986Z,26.67
2019-02-26T09:17:29.909Z,29.40
2019-02-26T09:20:08.423Z,28.30
2019-02-26T09:22:30.873Z,29.30
2019-02-26T09:25:02.201Z,34.30
2019-02-26T09:27:35.113Z,30.57
2019-02-26T09:30:05.829Z,30.27
2019-02-26T09:32:39.293Z,32.40
2019-02-26T09:35:10.135Z,28.57
2019-02-26T09:37:40.272Z,30.60
2019-02-26T09:40:12.000Z,31.77
2019-02-26T09:42:43.753Z,33.07
2019-02-26T09:45:17.733Z,31.03
2019-02-26T09:47:49.609Z,27.23
2019-02-26T09:50:20.738Z,30.73
2019-02-26T09:52:53.456Z,31.07
2019-02-26T09:55:22.952Z,28.97
2019-02-26T09:57:53.028Z,32.57
2019-02-26T10:00:27.217Z,26.83
2019-02-26T10:02:55.711Z,34.60
2019-02-26T10:05:25.804Z,30.33
2019-02-26T10:07:58.027Z,28.90
2019-02-26T10:10:30.829Z,34.87
2019-02-26T10:13:02.128Z,31.43
2019-02-26T10:15:32.347Z,31.53
2019-02-26T10:18:06.201Z,27.97
2019-02-26T10:20:35.062Z,28.53
2019-02-26T10:23:06.337Z,27.20
2019-02-26T10:25:38.599Z,31.53
2019-02-26T10:28:11.166Z,30.00
2019-02-26T10:30:41.710Z,28.40
2019-02-26T10:33:12.020Z,30.47
2019-02-26T10:35:45.065Z,29.83
2019-02-26T10:38:13.980Z,26.70
2019-02-26T10:40:53.476Z,28.23
2019-02-26T10:43:15.860Z,28.00
2019-02-26T10:45:47.449Z,25.23
2019-02-26T10:48:19.768Z,29.60
2019-02-26T10:50:51.759Z,26.67
2019-02-26T10:53:22.641Z,22.60
2019-02-26T10:55:52.840Z,28.73
2019-02-26T10:58:22.958Z,27.43
2019-02-26T11:00:55.586Z,27.60
2019-02-26T11:03:25.839Z,27.93
2019-02-26T11:05:55.885Z,29.07
2019-02-26T11:08:28.943Z,30.10
2019-02-26T11:10:57.772Z,23.77
2019-02-26T11:13:27.806Z,24.80
2019-02-26T11:15:59.911Z,20.57
2019-02-26T11:18:29.778Z,23.77
2019-02-26T11:20:59.798Z,24.50
2019-02-26T11:23:31.151Z,24.77
2019-02-26T11:26:01.645Z,24.57
2019-02-26T11:28:33.259Z,26.10
2019-02-26T11:31:03.527Z,24.57
2019-02-26T11:33:33.668Z,21.73
2019-02-26T11:36:05.539Z,23.10
2019-02-26T11:38:39.069Z,22.73
2019-02-26T11:41:07.347Z,23.70
2019-02-26T11:43:37.456Z,24.97
2019-02-26T11:46:08.743Z,28.10
2019-02-26T11:48:38.905Z,24.50
2019-02-26T11:51:08.919Z,25.27
2019-02-26T11:53:39.044Z,24.37
2019-02-26T11:56:09.170Z,26.43
2019-02-26T11:58:39.247Z,26.27
2019-02-26T12:01:12.120Z,28.37
2019-02-26T12:03:43.857Z,25.80
2019-02-26T12:06:14.136Z,30.17
2019-02-26T12:08:44.973Z,26.00
2019-02-26T12:11:17.812Z,30.93
2019-02-26T12:13:50.085Z,31.90
2019-02-26T12:16:19.701Z,28.00
2019-02-26T12:18:49.849Z,29.10
2019-02-26T12:21:19.944Z,31.00
2019-02-26T12:23:49.991Z,27.50
2019-02-26T12:26:22.186Z,27.07
2019-02-26T12:28:52.825Z,27.23
2019-02-26T12:31:25.310Z,24.23
2019-02-26T12:33:55.802Z,25.73
2019-02-26T12:36:26.630Z,25.93
2019-02-26T12:39:00.001Z,22.57
2019-02-26T12:41:29.529Z,25.93
2019-02-26T12:44:05.662Z,24.87
2019-02-26T12:46:33.935Z,29.10
2019-02-26T12:49:05.718Z,30.00
2019-02-26T12:51:35.875Z,25.57
2019-02-26T12:54:07.036Z,25.53
2019-02-26T12:56:37.805Z,25.80
2019-02-26T12:59:07.891Z,26.43
2019-02-26T13:01:39.758Z,25.33
2019-02-26T13:04:12.973Z,23.07
2019-02-26T13:06:45.260Z,29.63
2019-02-26T13:09:13.213Z,26.30
2019-02-26T13:12:00.457Z,26.93
2019-02-26T13:14:15.036Z,30.10
2019-02-26T13:16:46.289Z,26.53
2019-02-26T13:19:21.419Z,28.30
2019-02-26T13:21:48.673Z,26.50
2019-02-26T13:24:21.522Z,31.37
2019-02-26T13:26:51.675Z,24.43
2019-02-26T13:29:22.403Z,30.60
2019-02-26T13:34:24.289Z,31.80
2019-02-26T13:36:56.783Z,30.63
2019-02-26T13:39:29.849Z,25.53
2019-02-26T13:42:03.680Z,31.47
2019-02-26T13:44:29.879Z,28.77
2019-02-26T13:47:00.128Z,27.67
2019-02-26T13:49:30.229Z,31.23
2019-02-26T13:52:00.445Z,29.47
2019-02-26T13:54:30.541Z,31.23
2019-02-26T13:57:00.780Z,29.03
2019-02-26T13:59:30.925Z,27.87
2019-02-26T14:02:02.329Z,29.43
2019-02-26T14:04:32.444Z,32.93
2019-02-26T14:07:02.507Z,31.47
2019-02-26T14:09:32.633Z,28.17
2019-02-26T14:12:02.782Z,27.83
2019-02-26T14:14:33.055Z,28.17
2019-02-26T14:17:03.202Z,30.70
2019-02-26T14:19:33.284Z,28.87
2019-02-26T14:22:03.438Z,29.60
2019-02-26T14:24:33.522Z,27.23
2019-02-26T14:27:03.560Z,28.90
2019-02-26T14:29:33.611Z,29.97
2019-02-26T14:32:03.667Z,29.93
2019-02-26T14:34:33.702Z,31.40
2019-02-26T14:37:03.923Z,28.23
2019-02-26T14:39:34.010Z,31.37
2019-02-26T14:42:04.145Z,32.23
2019-02-26T14:44:34.231Z,31.13
2019-02-26T14:47:04.533Z,27.87
2019-02-26T14:49:34.653Z,29.27
2019-02-26T14:52:04.685Z,29.93
2019-02-26T14:54:34.712Z,27.50
2019-02-26T14:57:04.783Z,29.67
2019-02-26T14:59:34.890Z,27.13
2019-02-26T15:02:05.029Z,30.47
2019-02-26T15:04:35.133Z,31.57
2019-02-26T15:07:05.203Z,31.17
2019-02-26T15:09:35.326Z,32.63
2019-02-26T15:12:05.429Z,27.80
2019-02-26T15:14:35.540Z,31.77
2019-02-26T15:17:06.293Z,30.27
2019-02-26T15:19:36.417Z,28.60
2019-02-26T15:22:06.433Z,26.07
2019-02-26T15:24:36.554Z,23.20
2019-02-26T15:27:06.672Z,23.37
2019-02-26T15:29:36.807Z,23.00
2019-02-26T15:32:07.014Z,24.60
2019-02-26T15:34:37.142Z,24.17
2019-02-26T15:37:07.252Z,23.47
2019-02-26T15:39:37.322Z,28.27
2019-02-26T15:42:07.418Z,24.50
2019-02-26T15:44:37.533Z,28.40
2019-02-26T15:47:09.212Z,29.63
2019-02-26T15:49:39.490Z,25.30
2019-02-26T15:52:09.513Z,25.17
2019-02-26T15:54:39.571Z,21.97
2019-02-26T15:57:09.593Z,23.87
2019-02-26T15:59:39.641Z,19.77
2019-02-26T16:02:09.656Z,23.03
2019-02-26T16:04:39.830Z,24.67
2019-02-26T16:07:09.929Z,23.73
2019-02-26T16:09:40.010Z,24.33
2019-02-26T16:12:10.052Z,23.23
2019-02-26T16:14:40.110Z,23.37
2019-02-26T16:17:10.321Z,22.77
2019-02-26T16:19:40.350Z,21.83
2019-02-26T16:22:10.381Z,24.33
2019-02-26T16:24:40.618Z,25.20
2019-02-26T16:27:10.672Z,25.70
2019-02-26T16:29:40.739Z,22.37
2019-02-26T16:32:10.821Z,22.73
2019-02-26T16:34:40.869Z,23.30
2019-02-26T16:37:11.001Z,23.97
2019-02-26T16:39:41.111Z,19.93
2019-02-26T16:42:11.764Z,24.83
2019-02-26T16:44:42.395Z,28.03
2019-02-26T16:47:12.617Z,30.40
2019-02-26T16:49:44.203Z,26.93
2019-02-26T16:52:14.265Z,25.37
2019-02-26T16:54:44.395Z,23.67
2019-02-26T16:57:14.479Z,26.50
2019-02-26T16:59:44.547Z,27.40
2019-02-26T17:02:15.483Z,26.57
2019-02-26T17:04:45.497Z,25.03
2019-02-26T17:07:15.629Z,25.10
2019-02-26T17:09:45.688Z,23.20
2019-02-26T17:12:15.863Z,26.43
2019-02-26T17:14:46.083Z,22.97
2019-02-26T17:17:16.191Z,23.47
2019-02-26T17:19:48.368Z,25.37
2019-02-26T17:22:20.321Z,25.03
2019-02-26T17:24:53.395Z,29.57
2019-02-26T17:27:22.273Z,27.00
2019-02-26T17:29:52.466Z,28.33
2019-02-26T17:32:22.785Z,26.33
2019-02-26T17:34:53.802Z,24.77
2019-02-26T17:37:24.615Z,30.23
2019-02-26T17:39:54.703Z,28.00
2019-02-26T17:42:24.849Z,29.47
2019-02-26T17:44:55.084Z,32.30
2019-02-26T17:47:25.469Z,34.53
2019-02-26T17:49:55.644Z,32.80
2019-02-26T17:52:25.873Z,37.43
2019-02-26T17:54:55.941Z,27.17
2019-02-26T17:57:26.181Z,29.70
2019-02-26T17:59:56.307Z,30.03
2019-02-26T18:02:27.498Z,30.47
2019-02-26T18:04:58.508Z,25.47
2019-02-26T18:07:30.037Z,33.40
2019-02-26T18:10:00.217Z,29.03
2019-02-26T18:12:30.375Z,30.90
2019-02-26T18:15:00.552Z,28.97
2019-02-26T18:17:30.655Z,35.00
2019-02-26T18:20:00.812Z,36.43
2019-02-26T18:22:30.888Z,29.70
2019-02-26T18:25:01.742Z,30.47
2019-02-26T18:27:31.821Z,31.37
2019-02-26T18:30:02.329Z,30.37
2019-02-26T18:32:32.399Z,27.07
2019-02-26T18:35:02.501Z,31.67
2019-02-26T18:37:33.001Z,34.77
2019-02-26T18:40:03.215Z,30.43
2019-02-26T18:42:33.267Z,29.37
2019-02-26T18:45:03.383Z,34.37
2019-02-26T18:47:33.480Z,29.13
2019-02-26T18:50:03.554Z,31.20
2019-02-26T18:52:33.595Z,26.37
2019-02-26T18:55:03.784Z,32.27
2019-02-26T18:57:33.894Z,29.03
2019-02-26T19:00:05.636Z,28.23
2019-02-26T19:02:36.000Z,25.40
2019-02-26T19:05:06.959Z,46.07
2019-02-26T19:07:37.188Z,43.60
2019-02-26T19:10:09.201Z,38.83
2019-02-26T19:12:39.309Z,32.60
2019-02-26T19:15:12.576Z,36.00
2019-02-26T19:17:44.553Z,32.83
2019-02-26T19:20:15.565Z,33.43
2019-02-26T19:22:45.776Z,32.47
2019-02-26T19:25:15.842Z,37.43
2019-02-26T19:27:45.940Z,32.47
2019-02-26T19:30:17.203Z,32.70
2019-02-26T19:32:47.786Z,32.80
2019-02-26T19:35:18.415Z,28.93
2019-02-26T19:37:49.978Z,21.63
2019-02-26T19:40:21.740Z,21.23
2019-02-26T19:42:52.917Z,22.90
2019-02-26T19:45:26.465Z,20.67
2019-02-26T19:47:56.601Z,19.53
2019-02-26T19:50:26.713Z,21.73
2019-02-26T19:52:57.459Z,21.00
2019-02-26T19:55:31.128Z,25.23
2019-02-26T19:58:03.979Z,30.43
2019-02-26T20:00:33.014Z,47.77
2019-02-26T20:03:05.511Z,42.80
2019-02-26T20:05:34.828Z,20.73
2019-02-26T20:08:06.100Z,18.20
2019-02-26T20:10:36.234Z,20.53
2019-02-26T20:13:12.321Z,19.57
2019-02-26T20:15:38.011Z,20.97
2019-02-26T20:18:08.070Z,20.03
2019-02-26T20:20:40.946Z,22.93
2019-02-26T20:23:09.863Z,27.43
2019-02-26T20:25:42.465Z,30.73
2019-02-26T20:28:11.682Z,31.40
2019-02-26T20:30:41.717Z,26.23
2019-02-26T20:33:11.795Z,26.53
2019-02-26T20:35:45.116Z,18.90
2019-02-26T20:38:13.587Z,25.70
2019-02-26T20:40:43.625Z,22.67
2019-02-26T20:43:13.743Z,66.50
2019-02-26T20:45:43.779Z,70.17
2019-02-26T20:48:14.252Z,34.03
2019-02-26T20:50:44.297Z,29.30
2019-02-26T20:53:14.386Z,25.67
2019-02-26T20:55:52.217Z,25.70
2019-02-26T20:58:16.238Z,22.73
2019-02-26T21:00:48.227Z,21.90
2019-02-26T21:03:18.094Z,21.70
2019-02-26T21:05:48.198Z,23.43
2019-02-26T21:08:18.305Z,26.53
2019-02-26T21:10:48.731Z,21.10
2019-02-26T21:13:18.904Z,22.87
2019-02-26T21:15:48.924Z,40.97
2019-02-26T21:18:18.986Z,32.83
2019-02-26T21:20:49.348Z,41.00
2019-02-26T21:23:19.536Z,35.05
2019-02-26T21:25:49.518Z,28.07
2019-02-26T21:28:19.548Z,29.77
2019-02-26T21:30:49.675Z,27.40
2019-02-26T21:33:19.857Z,28.47
2019-02-26T21:35:51.925Z,29.73
2019-02-26T21:38:21.740Z,28.23
2019-02-26T21:40:52.134Z,24.53
2019-02-26T21:43:22.387Z,27.27
2019-02-26T21:45:52.445Z,29.90
2019-02-26T21:48:22.550Z,22.07
2019-02-26T21:50:54.513Z,27.53
2019-02-26T21:53:24.343Z,31.53
2019-02-26T21:55:55.644Z,19.93
2019-02-26T21:58:26.817Z,19.03
2019-02-26T22:00:57.431Z,19.57
2019-02-26T22:03:27.451Z,17.63
2019-02-26T22:06:05.072Z,19.10
2019-02-26T22:08:29.267Z,21.93
2019-02-26T22:10:59.402Z,21.60
2019-02-26T22:13:29.885Z,21.50
2019-02-26T22:16:00.062Z,24.37
2019-02-26T22:18:34.064Z,19.57
2019-02-26T22:21:02.314Z,25.23
2019-02-26T22:23:34.306Z,19.83
2019-02-26T22:26:04.141Z,18.73
2019-02-26T22:28:34.226Z,17.03
2019-02-26T22:31:04.239Z,19.07
2019-02-26T22:33:34.334Z,25.37
2019-02-26T22:36:04.390Z,21.27
2019-02-26T22:38:34.415Z,22.40
2019-02-26T22:41:04.854Z,26.83
2019-02-26T22:43:34.972Z,26.70
2019-02-26T22:46:05.092Z,25.67
2019-02-26T22:48:35.166Z,21.97
2019-02-26T22:51:05.269Z,22.77
2019-02-26T22:53:36.655Z,26.90
2019-02-26T22:56:07.274Z,26.43
2019-02-26T22:58:37.480Z,23.47
2019-02-26T23:01:30.513Z,26.80
2019-02-26T23:03:59.622Z,21.73
2019-02-26T23:06:31.701Z,21.00
2019-02-26T23:09:01.878Z,24.30
2019-02-26T23:11:32.682Z,23.07
2019-02-26T23:14:04.972Z,19.37
2019-02-26T23:16:35.892Z,23.20
2019-02-26T23:19:05.961Z,20.70
2019-02-26T23:21:36.927Z,18.83
2019-02-26T23:24:07.390Z,17.50
2019-02-26T23:26:41.889Z,18.53
2019-02-26T23:29:09.701Z,18.87
2019-02-26T23:31:39.783Z,18.07
2019-02-26T23:34:09.895Z,17.93
2019-02-26T23:36:39.993Z,20.80
2019-02-26T23:39:13.589Z,24.10
2019-02-26T23:41:44.986Z,19.40
2019-02-26T23:44:17.829Z,19.63
2019-02-26T23:46:47.277Z,18.17
2019-02-26T23:49:17.361Z,23.70
2019-02-26T23:51:47.841Z,20.97
2019-02-26T23:54:17.925Z,20.57
2019-02-26T23:56:49.839Z,23.93
2019-02-26T23:59:19.765Z,20.53
